createdAt,value
2023-02-14T00:01:29.376Z,3.20
2023-02-14T00:04:00.620Z,3.20
2023-02-14T00:06:28.972Z,3.20
2023-02-14T00:08:56.891Z,3.30
2023-02-14T00:11:24.793Z,3.30
2023-02-14T00:14:10.086Z,3.40
2023-02-14T00:16:39.441Z,3.40
2023-02-14T00:19:07.425Z,3.40
2023-02-14T00:21:37.289Z,3.50
2023-02-14T00:24:05.872Z,3.50
2023-02-14T00:26:34.405Z,3.50
2023-02-14T00:29:02.540Z,3.50
2023-02-14T00:31:30.510Z,3.60
2023-02-14T00:33:59.846Z,3.60
2023-02-14T00:36:27.975Z,3.60
2023-02-14T00:38:55.934Z,3.60
2023-02-14T00:41:24.418Z,3.60
2023-02-14T00:43:54.356Z,3.60
2023-02-14T00:46:24.186Z,3.60
2023-02-14T00:48:53.028Z,3.60
2023-02-14T00:51:23.194Z,3.60
2023-02-14T00:53:51.994Z,3.60
2023-02-14T00:56:20.660Z,4.60
2023-02-14T00:58:48.774Z,3.60
2023-02-14T01:01:17.880Z,3.60
2023-02-14T01:03:45.974Z,3.60
2023-02-14T01:06:14.235Z,5.20
2023-02-14T01:08:43.642Z,3.70
2023-02-14T01:11:14.693Z,3.70
2023-02-14T01:13:43.365Z,3.70
2023-02-14T01:16:13.468Z,3.80
2023-02-14T01:18:41.839Z,3.70
2023-02-14T01:21:15.113Z,3.70
2023-02-14T01:23:45.144Z,3.80
2023-02-14T01:26:13.999Z,3.70
2023-02-14T01:28:42.824Z,3.80
2023-02-14T01:31:12.944Z,3.80
2023-02-14T01:33:42.576Z,3.80
2023-02-14T01:36:17.186Z,3.80
2023-02-14T01:38:46.757Z,3.80
2023-02-14T01:41:15.381Z,3.80
2023-02-14T01:43:55.826Z,3.80
2023-02-14T01:46:24.590Z,4.00
2023-02-14T01:48:53.516Z,3.70
2023-02-14T01:51:21.879Z,3.90
2023-02-14T01:53:52.581Z,3.90
2023-02-14T01:56:25.205Z,3.90
2023-02-14T01:58:56.820Z,3.90
2023-02-14T02:01:25.226Z,3.80
2023-02-14T02:03:56.946Z,3.90
2023-02-14T02:06:30.489Z,4.00
2023-02-14T02:09:08.112Z,4.00
2023-02-14T02:11:37.881Z,5.40
2023-02-14T02:14:06.432Z,4.00
2023-02-14T02:17:05.355Z,4.50
2023-02-14T02:20:03.653Z,3.90
2023-02-14T02:22:57.166Z,3.80
2023-02-14T02:25:43.608Z,3.80
2023-02-14T02:28:35.409Z,3.80
2023-02-14T02:31:27.157Z,3.80
2023-02-14T02:34:35.054Z,3.80
2023-02-14T02:37:20.656Z,3.70
2023-02-14T02:39:59.841Z,3.80
2023-02-14T02:42:37.088Z,3.80
2023-02-14T02:45:13.084Z,3.80
2023-02-14T02:47:46.423Z,3.70
2023-02-14T02:50:44.831Z,3.80
2023-02-14T02:53:21.748Z,3.70
2023-02-14T02:56:14.158Z,5.10
2023-02-14T02:58:46.403Z,3.80
2023-02-14T03:01:18.177Z,3.80
2023-02-14T03:04:07.055Z,3.80
2023-02-14T03:06:35.477Z,3.80
2023-02-14T03:09:13.522Z,5.10
2023-02-14T03:11:50.112Z,3.80
2023-02-14T03:14:22.273Z,3.80
2023-02-14T03:17:04.897Z,3.80
2023-02-14T03:20:02.112Z,3.80
2023-02-14T03:22:43.090Z,3.80
2023-02-14T03:25:25.529Z,3.80
2023-02-14T03:28:00.097Z,3.80
2023-02-14T03:30:42.180Z,3.80
2023-02-14T03:33:16.924Z,3.80
2023-02-14T03:35:53.972Z,3.80
2023-02-14T03:38:26.558Z,3.80
2023-02-14T03:40:58.730Z,3.80
2023-02-14T03:43:31.855Z,3.80
2023-02-14T03:46:04.579Z,3.80
2023-02-14T03:48:36.185Z,3.80
2023-02-14T03:51:05.840Z,3.80
2023-02-14T03:53:38.043Z,3.80
2023-02-14T03:56:12.018Z,3.90
2023-02-14T03:58:42.344Z,3.90
2023-02-14T04:01:14.072Z,3.90
2023-02-14T04:03:43.755Z,3.90
2023-02-14T04:06:11.874Z,3.90
2023-02-14T04:08:39.890Z,3.90
2023-02-14T04:11:09.291Z,3.90
2023-02-14T04:13:38.721Z,3.90
2023-02-14T04:16:07.733Z,3.80
2023-02-14T04:18:53.006Z,3.80
2023-02-14T04:21:21.033Z,3.80
2023-02-14T04:23:48.982Z,3.80
2023-02-14T04:26:18.331Z,3.80
2023-02-14T04:28:46.367Z,4.00
2023-02-14T04:31:14.467Z,4.70
2023-02-14T04:33:42.510Z,3.80
2023-02-14T04:36:10.600Z,3.80
2023-02-14T04:38:38.610Z,3.80
2023-02-14T04:41:06.591Z,3.80
2023-02-14T04:43:35.934Z,3.80
2023-02-14T04:46:03.907Z,3.80
2023-02-14T04:48:31.852Z,3.80
2023-02-14T04:51:00.048Z,3.80
2023-02-14T04:53:28.175Z,3.90
2023-02-14T04:55:56.127Z,3.90
2023-02-14T04:58:24.097Z,3.90
2023-02-14T05:00:53.452Z,3.90
2023-02-14T05:03:21.486Z,3.90
2023-02-14T05:05:49.467Z,3.90
2023-02-14T05:08:17.417Z,4.80
2023-02-14T05:10:45.608Z,3.90
2023-02-14T05:13:14.400Z,3.90
2023-02-14T05:15:42.353Z,4.50
2023-02-14T05:18:11.704Z,3.80
2023-02-14T05:20:39.664Z,3.90
2023-02-14T05:23:13.567Z,3.80
2023-02-14T05:25:41.681Z,3.80
2023-02-14T05:28:09.887Z,3.80
2023-02-14T05:30:39.261Z,3.90
2023-02-14T05:33:07.487Z,3.80
2023-02-14T05:35:36.799Z,3.80
2023-02-14T05:38:04.901Z,3.90
2023-02-14T05:40:33.004Z,3.90
2023-02-14T05:43:01.189Z,3.90
2023-02-14T05:45:29.167Z,3.90
2023-02-14T05:47:57.163Z,3.90
2023-02-14T05:50:25.205Z,3.90
2023-02-14T05:52:54.510Z,3.90
2023-02-14T05:55:22.580Z,4.00
2023-02-14T05:57:50.534Z,4.00
2023-02-14T06:00:19.787Z,4.30
2023-02-14T06:02:47.742Z,4.00
2023-02-14T06:05:18.239Z,4.10
2023-02-14T06:07:50.468Z,4.10
2023-02-14T06:10:21.624Z,4.10
2023-02-14T06:12:51.447Z,4.10
2023-02-14T06:15:19.632Z,4.10
2023-02-14T06:17:52.632Z,4.10
2023-02-14T06:20:21.140Z,4.10
2023-02-14T06:22:49.114Z,4.20
2023-02-14T06:25:17.155Z,4.20
2023-02-14T06:27:49.049Z,4.20
2023-02-14T06:30:18.334Z,4.20
2023-02-14T06:32:46.311Z,4.20
2023-02-14T06:35:14.750Z,4.70
2023-02-14T06:37:42.724Z,4.20
2023-02-14T06:40:11.580Z,4.20
2023-02-14T06:42:40.093Z,4.20
2023-02-14T06:45:10.624Z,4.20
2023-02-14T06:47:38.868Z,4.20
2023-02-14T06:50:08.277Z,5.10
2023-02-14T06:52:36.219Z,4.20
2023-02-14T06:55:06.572Z,4.20
2023-02-14T06:57:34.493Z,4.20
2023-02-14T07:00:02.450Z,4.20
2023-02-14T07:02:31.768Z,4.20
2023-02-14T07:04:59.735Z,4.30
2023-02-14T07:07:27.685Z,4.30
2023-02-14T07:09:55.611Z,4.30
2023-02-14T07:12:23.531Z,4.30
2023-02-14T07:14:51.493Z,5.10
2023-02-14T07:17:19.435Z,4.30
2023-02-14T07:19:48.725Z,4.40
2023-02-14T07:22:16.655Z,4.40
2023-02-14T07:24:44.579Z,4.40
2023-02-14T07:27:12.525Z,4.40
2023-02-14T07:29:40.529Z,4.40
2023-02-14T07:32:08.600Z,4.40
2023-02-14T07:34:36.636Z,4.50
2023-02-14T07:37:05.945Z,4.50
2023-02-14T07:39:34.010Z,4.50
2023-02-14T07:42:01.923Z,4.50
2023-02-14T07:44:29.925Z,5.60
2023-02-14T07:46:57.854Z,4.60
2023-02-14T07:49:25.826Z,4.60
2023-02-14T07:51:53.792Z,4.60
2023-02-14T07:54:23.195Z,4.60
2023-02-14T07:56:51.329Z,4.60
2023-02-14T07:59:19.271Z,4.70
2023-02-14T08:01:47.666Z,4.70
2023-02-14T08:04:15.642Z,4.60
2023-02-14T08:06:44.073Z,4.70
2023-02-14T08:09:24.533Z,4.70
2023-02-14T08:12:12.500Z,4.70
2023-02-14T08:14:40.710Z,4.70
2023-02-14T08:17:10.086Z,4.70
2023-02-14T08:19:38.149Z,4.80
2023-02-14T08:22:06.433Z,4.80
2023-02-14T08:24:34.402Z,4.70
2023-02-14T08:27:03.931Z,4.80
2023-02-14T08:29:31.844Z,4.80
2023-02-14T08:32:01.014Z,4.80
2023-02-14T08:34:29.118Z,4.80
2023-02-14T08:36:57.122Z,4.90
2023-02-14T08:39:25.155Z,4.90
2023-02-14T08:41:53.121Z,4.90
2023-02-14T08:44:22.575Z,4.90
2023-02-14T08:46:50.816Z,5.00
2023-02-14T08:49:18.850Z,5.00
2023-02-14T08:51:46.805Z,5.00
2023-02-14T08:54:14.721Z,5.00
2023-02-14T08:56:42.921Z,5.00
2023-02-14T08:59:10.885Z,5.10
2023-02-14T09:01:40.189Z,5.10
2023-02-14T09:04:08.185Z,5.00
2023-02-14T09:06:38.609Z,5.10
2023-02-14T09:09:06.676Z,5.10
2023-02-14T09:11:35.630Z,5.00
2023-02-14T09:14:03.572Z,5.10
2023-02-14T09:16:31.702Z,5.20
2023-02-14T09:19:01.024Z,5.30
2023-02-14T09:21:30.227Z,5.30
2023-02-14T09:23:58.470Z,5.30
2023-02-14T09:26:26.427Z,5.30
2023-02-14T09:28:54.409Z,5.30
2023-02-14T09:31:24.077Z,5.40
2023-02-14T09:33:52.833Z,6.00
2023-02-14T09:36:39.758Z,5.50
2023-02-14T09:39:07.723Z,5.40
2023-02-14T09:41:57.456Z,5.40
2023-02-14T09:44:31.280Z,5.40
2023-02-14T09:47:07.216Z,5.40
2023-02-14T09:49:39.741Z,5.50
2023-02-14T09:52:16.324Z,5.50
2023-02-14T09:54:48.068Z,5.50
2023-02-14T09:57:24.068Z,5.50
2023-02-14T09:59:58.417Z,5.60
2023-02-14T10:02:45.908Z,5.60
2023-02-14T10:05:16.772Z,5.60
2023-02-14T10:08:07.578Z,5.60
2023-02-14T10:10:41.430Z,5.70
2023-02-14T10:13:17.075Z,5.60
2023-02-14T10:15:49.594Z,5.60
2023-02-14T10:18:22.402Z,5.60
2023-02-14T10:20:54.261Z,5.60
2023-02-14T10:23:30.336Z,5.70
2023-02-14T10:26:02.064Z,5.70
2023-02-14T10:28:34.264Z,5.70
2023-02-14T10:31:21.153Z,5.70
2023-02-14T10:33:57.084Z,5.70
2023-02-14T10:36:48.790Z,5.70
2023-02-14T10:39:40.147Z,5.70
2023-02-14T10:42:20.219Z,5.70
2023-02-14T10:44:56.156Z,5.80
2023-02-14T10:47:34.423Z,5.80
2023-02-14T10:50:12.233Z,5.90
2023-02-14T10:52:45.196Z,5.90
2023-02-14T10:55:31.978Z,5.90
2023-02-14T10:58:04.093Z,5.90
2023-02-14T11:00:35.399Z,5.90
2023-02-14T11:03:07.832Z,6.00
2023-02-14T11:05:39.675Z,6.00
2023-02-14T11:08:16.051Z,6.00
2023-02-14T11:10:45.427Z,6.00
2023-02-14T11:13:35.273Z,6.10
2023-02-14T11:16:05.884Z,6.20
2023-02-14T11:18:36.189Z,6.20
2023-02-14T11:21:08.159Z,6.30
2023-02-14T11:23:39.164Z,6.40
2023-02-14T11:26:12.907Z,6.40
2023-02-14T11:28:53.729Z,6.40
2023-02-14T11:31:34.210Z,6.30
2023-02-14T11:34:04.985Z,6.40
2023-02-14T11:36:33.768Z,6.40
2023-02-14T11:39:17.576Z,6.40
2023-02-14T11:41:51.452Z,6.40
2023-02-14T11:44:24.691Z,6.50
2023-02-14T11:46:54.441Z,6.50
2023-02-14T11:49:31.511Z,6.50
2023-02-14T11:52:02.393Z,6.50
2023-02-14T11:54:36.969Z,6.50
2023-02-14T11:57:13.146Z,6.50
2023-02-14T11:59:44.979Z,6.50
2023-02-14T12:02:24.363Z,6.50
2023-02-14T12:04:56.563Z,6.50
2023-02-14T12:07:28.598Z,6.60
2023-02-14T12:10:35.230Z,6.60
2023-02-14T12:13:22.819Z,6.60
2023-02-14T12:15:54.097Z,6.60
2023-02-14T12:18:43.863Z,7.30
2023-02-14T12:21:24.004Z,6.70
2023-02-14T12:24:00.437Z,6.70
2023-02-14T12:26:32.158Z,6.70
2023-02-14T12:29:10.750Z,6.70
2023-02-14T12:31:38.798Z,6.80
2023-02-14T12:34:07.216Z,6.80
2023-02-14T12:36:47.917Z,6.80
2023-02-14T12:39:24.235Z,6.90
2023-02-14T12:42:02.784Z,7.00
2023-02-14T12:44:40.453Z,7.00
2023-02-14T12:47:20.342Z,7.20
2023-02-14T12:50:04.953Z,7.40
2023-02-14T12:52:48.515Z,7.90
2023-02-14T12:55:30.644Z,8.20
2023-02-14T12:58:04.748Z,8.50
2023-02-14T13:00:44.891Z,8.70
2023-02-14T13:03:28.475Z,8.80
2023-02-14T13:06:03.452Z,8.80
2023-02-14T13:08:43.577Z,8.80
2023-02-14T13:11:19.128Z,8.70
2023-02-14T13:14:03.860Z,8.70
2023-02-14T13:16:40.725Z,8.70
2023-02-14T13:19:20.297Z,8.70
2023-02-14T13:21:50.554Z,8.70
2023-02-14T13:24:22.682Z,9.10
2023-02-14T13:26:55.366Z,8.60
2023-02-14T13:29:25.921Z,8.60
2023-02-14T13:32:00.003Z,8.50
2023-02-14T13:34:31.807Z,8.60
2023-02-14T13:37:01.717Z,8.60
2023-02-14T13:39:37.786Z,8.70
2023-02-14T13:42:06.895Z,9.60
2023-02-14T13:44:44.155Z,8.80
2023-02-14T13:47:20.996Z,8.80
2023-02-14T13:49:52.524Z,8.80
2023-02-14T13:52:39.812Z,8.90
2023-02-14T13:55:09.996Z,9.50
2023-02-14T13:57:41.301Z,9.20
2023-02-14T14:00:38.445Z,9.30
2023-02-14T14:03:09.219Z,9.50
2023-02-14T14:06:02.094Z,9.90
2023-02-14T14:08:46.334Z,10.10
2023-02-14T14:12:01.822Z,10.30
2023-02-14T14:14:37.521Z,10.50
2023-02-14T14:17:22.158Z,10.90
2023-02-14T14:19:52.319Z,11.20
2023-02-14T14:22:21.312Z,11.40
2023-02-14T14:24:54.670Z,11.50
2023-02-14T14:27:25.778Z,11.60
2023-02-14T14:29:55.911Z,11.70
2023-02-14T14:32:29.506Z,11.70
2023-02-14T14:35:00.682Z,11.80
2023-02-14T14:37:30.976Z,11.90
2023-02-14T14:40:00.386Z,11.80
2023-02-14T14:42:31.138Z,11.80
2023-02-14T14:45:02.798Z,11.70
2023-02-14T14:47:38.655Z,11.70
2023-02-14T14:50:11.088Z,11.50
2023-02-14T14:52:43.831Z,11.40
2023-02-14T14:55:21.043Z,11.30
2023-02-14T14:57:54.515Z,11.10
2023-02-14T15:00:28.550Z,10.70
2023-02-14T15:02:58.481Z,10.50
2023-02-14T15:05:29.809Z,10.30
2023-02-14T15:07:58.785Z,10.20
2023-02-14T15:10:29.916Z,10.00
2023-02-14T15:13:17.676Z,9.80
2023-02-14T15:15:50.899Z,9.70
2023-02-14T15:18:19.560Z,9.50
2023-02-14T15:20:52.739Z,9.30
2023-02-14T15:23:23.524Z,9.20
2023-02-14T15:25:52.568Z,9.00
2023-02-14T15:28:31.246Z,8.90
2023-02-14T15:31:01.703Z,8.90
2023-02-14T15:33:31.039Z,8.60
2023-02-14T15:36:03.841Z,8.50
2023-02-14T15:38:33.850Z,8.40
2023-02-14T15:41:02.730Z,8.30
2023-02-14T15:43:32.859Z,8.20
2023-02-14T15:46:15.363Z,8.00
2023-02-14T15:48:43.826Z,8.20
2023-02-14T15:51:20.275Z,7.80
2023-02-14T15:53:53.023Z,8.20
2023-02-14T15:56:24.912Z,7.60
2023-02-14T15:59:02.462Z,7.80
2023-02-14T16:01:31.566Z,7.30
2023-02-14T16:04:02.673Z,7.20
2023-02-14T16:06:35.756Z,7.10
2023-02-14T16:09:04.975Z,7.10
2023-02-14T16:11:37.091Z,6.90
2023-02-14T16:14:31.579Z,7.10
2023-02-14T16:17:01.514Z,6.70
2023-02-14T16:19:38.278Z,6.60
2023-02-14T16:22:09.729Z,6.50
2023-02-14T16:24:38.326Z,6.50
2023-02-14T16:27:07.907Z,6.30
2023-02-14T16:29:37.229Z,6.20
2023-02-14T16:32:16.895Z,6.10
2023-02-14T16:34:47.256Z,6.10
2023-02-14T16:37:23.227Z,6.00
2023-02-14T16:39:53.850Z,5.90
2023-02-14T16:42:21.940Z,5.80
2023-02-14T16:44:50.325Z,5.70
2023-02-14T16:47:20.739Z,6.30
2023-02-14T16:49:50.630Z,5.60
2023-02-14T16:52:24.691Z,5.50
2023-02-14T16:54:53.455Z,5.90
2023-02-14T16:57:25.493Z,5.70
2023-02-14T16:59:56.416Z,5.30
2023-02-14T17:02:28.281Z,5.30
2023-02-14T17:04:56.406Z,5.20
2023-02-14T17:07:26.094Z,5.10
2023-02-14T17:09:59.669Z,5.10
2023-02-14T17:12:32.294Z,5.00
2023-02-14T17:15:05.961Z,5.00
2023-02-14T17:17:35.068Z,5.00
2023-02-14T17:20:04.884Z,4.90
2023-02-14T17:22:34.510Z,4.80
2023-02-14T17:25:02.474Z,4.80
2023-02-14T17:27:30.390Z,4.70
2023-02-14T17:29:58.309Z,4.70
2023-02-14T17:32:26.302Z,4.60
2023-02-14T17:34:54.870Z,4.60
2023-02-14T17:37:22.889Z,4.50
2023-02-14T17:39:53.870Z,4.50
2023-02-14T17:42:22.016Z,4.50
2023-02-14T17:44:49.921Z,4.40
2023-02-14T17:47:18.255Z,4.40
2023-02-14T17:49:47.629Z,5.30
2023-02-14T17:52:16.512Z,4.30
2023-02-14T17:54:44.912Z,4.20
2023-02-14T17:57:14.445Z,4.20
2023-02-14T17:59:42.904Z,4.10
2023-02-14T18:02:10.855Z,4.10
2023-02-14T18:04:39.058Z,4.00
2023-02-14T18:07:07.150Z,4.00
2023-02-14T18:09:36.031Z,3.90
2023-02-14T18:12:04.173Z,3.90
2023-02-14T18:14:33.837Z,3.90
2023-02-14T18:17:01.784Z,3.90
2023-02-14T18:19:30.252Z,3.80
2023-02-14T18:21:58.309Z,3.80
2023-02-14T18:24:26.275Z,3.80
2023-02-14T18:26:55.404Z,3.70
2023-02-14T18:29:23.591Z,3.70
2023-02-14T18:31:53.000Z,3.60
2023-02-14T18:34:21.031Z,3.60
2023-02-14T18:36:48.989Z,3.60
2023-02-14T18:39:17.219Z,3.50
2023-02-14T18:41:45.138Z,3.50
2023-02-14T18:44:13.646Z,3.50
2023-02-14T18:46:41.613Z,3.50
2023-02-14T18:49:13.229Z,3.40
2023-02-14T18:51:41.341Z,3.40
2023-02-14T18:54:09.391Z,3.90
2023-02-14T18:56:38.923Z,3.30
2023-02-14T18:59:09.641Z,3.30
2023-02-14T19:01:39.746Z,3.30
2023-02-14T19:04:12.126Z,3.20
2023-02-14T19:06:41.894Z,3.20
2023-02-14T19:09:11.816Z,3.20
2023-02-14T19:11:40.299Z,3.20
2023-02-14T19:14:10.511Z,3.10
2023-02-14T19:16:39.940Z,3.10
2023-02-14T19:19:08.456Z,3.10
2023-02-14T19:21:38.235Z,3.00
2023-02-14T19:24:07.966Z,3.00
2023-02-14T19:26:40.089Z,2.90
2023-02-14T19:29:10.623Z,2.90
2023-02-14T19:31:40.488Z,2.80
2023-02-14T19:34:15.697Z,2.80
2023-02-14T19:36:45.372Z,2.80
2023-02-14T19:39:13.956Z,2.80
2023-02-14T19:41:42.159Z,2.80
2023-02-14T19:44:13.748Z,2.70
2023-02-14T19:46:42.863Z,2.70
2023-02-14T19:49:14.433Z,2.70
2023-02-14T19:51:44.234Z,2.60
2023-02-14T19:54:13.524Z,2.60
2023-02-14T19:56:44.192Z,2.60
2023-02-14T19:59:15.314Z,2.60
2023-02-14T20:01:46.321Z,2.60
2023-02-14T20:04:15.884Z,2.60
2023-02-14T20:06:46.000Z,2.50
2023-02-14T20:09:14.476Z,2.50
2023-02-14T20:11:49.585Z,2.40
2023-02-14T20:14:19.475Z,2.40
2023-02-14T20:16:48.003Z,2.40
2023-02-14T20:19:18.295Z,2.40
2023-02-14T20:21:49.015Z,2.40
2023-02-14T20:24:18.699Z,2.40
2023-02-14T20:26:47.470Z,2.40
2023-02-14T20:29:16.840Z,2.40
2023-02-14T20:31:46.364Z,2.40
2023-02-14T20:34:15.252Z,2.30
2023-02-14T20:36:44.051Z,2.30
2023-02-14T20:39:14.056Z,2.30
2023-02-14T20:41:43.669Z,2.30
2023-02-14T20:44:15.525Z,2.30
2023-02-14T20:46:43.826Z,2.20
2023-02-14T20:49:12.452Z,2.20
2023-02-14T20:51:40.736Z,2.10
2023-02-14T20:54:08.768Z,2.10
2023-02-14T20:56:40.090Z,2.10
2023-02-14T20:59:08.603Z,2.10
2023-02-14T21:01:36.695Z,2.10
2023-02-14T21:04:05.029Z,2.10
2023-02-14T21:06:35.481Z,2.10
2023-02-14T21:09:04.507Z,2.00
2023-02-14T21:11:32.494Z,2.00
2023-02-14T21:14:02.627Z,2.00
2023-02-14T21:16:31.273Z,1.90
2023-02-14T21:19:00.810Z,1.80
2023-02-14T21:21:32.644Z,1.80
2023-02-14T21:24:01.605Z,1.80
2023-02-14T21:26:30.032Z,1.80
2023-02-14T21:28:58.126Z,1.80
2023-02-14T21:31:27.641Z,1.90
2023-02-14T21:33:58.322Z,1.90
2023-02-14T21:36:28.550Z,1.90
2023-02-14T21:38:58.366Z,1.90
2023-02-14T21:41:27.702Z,1.90
2023-02-14T21:43:57.380Z,1.90
2023-02-14T21:46:27.667Z,1.90
2023-02-14T21:49:14.333Z,1.90
2023-02-14T21:51:42.898Z,1.90
2023-02-14T21:54:11.347Z,1.90
2023-02-14T21:56:41.261Z,1.90
2023-02-14T21:59:10.089Z,1.90
2023-02-14T22:01:41.391Z,2.00
2023-02-14T22:04:11.510Z,2.00
2023-02-14T22:06:41.615Z,2.10
2023-02-14T22:09:11.313Z,2.10
2023-02-14T22:11:39.477Z,2.10
2023-02-14T22:14:07.533Z,2.40
2023-02-14T22:16:36.828Z,2.30
2023-02-14T22:19:06.772Z,2.30
2023-02-14T22:21:35.309Z,2.40
2023-02-14T22:24:03.466Z,2.40
2023-02-14T22:26:33.787Z,2.40
2023-02-14T22:29:03.398Z,2.50
2023-02-14T22:31:34.732Z,2.50
2023-02-14T22:34:02.856Z,2.50
2023-02-14T22:36:32.271Z,2.50
2023-02-14T22:39:00.241Z,2.50
2023-02-14T22:41:28.488Z,2.50
2023-02-14T22:43:57.384Z,2.50
2023-02-14T22:46:28.381Z,2.40
2023-02-14T22:48:57.590Z,3.50
2023-02-14T22:51:31.070Z,2.50
2023-02-14T22:54:02.199Z,2.50
2023-02-14T22:56:31.979Z,2.50
2023-02-14T22:59:01.488Z,2.50
2023-02-14T23:01:29.694Z,2.50
2023-02-14T23:03:59.320Z,2.50
2023-02-14T23:06:28.770Z,2.40
2023-02-14T23:08:57.336Z,2.40
2023-02-14T23:11:28.202Z,2.40
2023-02-14T23:14:14.343Z,2.40
2023-02-14T23:17:00.254Z,2.40
2023-02-14T23:19:47.710Z,2.50
2023-02-14T23:22:19.720Z,2.50
2023-02-14T23:24:48.312Z,2.50
2023-02-14T23:27:19.349Z,2.50
2023-02-14T23:29:47.428Z,2.60
2023-02-14T23:32:16.310Z,3.30
2023-02-14T23:34:45.671Z,2.60
2023-02-14T23:37:14.811Z,2.60
2023-02-14T23:39:42.878Z,2.60
2023-02-14T23:42:13.712Z,2.60
2023-02-14T23:44:44.156Z,2.60
2023-02-14T23:47:13.653Z,2.60
2023-02-14T23:49:43.136Z,2.60
2023-02-14T23:52:13.312Z,2.60
2023-02-14T23:54:41.334Z,2.60
2023-02-14T23:57:09.944Z,2.60
2023-02-14T23:59:37.918Z,2.60
